Nearby METAR Reports

 

KRDU - Raleigh/Durham, North Carolina, USA
Distance from station: NNW 20mi, 33km
Updated: Mon, 18-Jan-2021 11:51pm EST
Clear
Clear
 Wind from calm
Wind: Calm
Temperature: 36°F , 2°C
Dew Point: 25°F , -4°C
Humidity: 65%
Barometer: 30.18 inHg , 1022 hPa
Clouds: Clear
Visibility: 10 miles , 16 km
2021/01/19 04:51 KRDU 190451Z 00000KT 10SM CLR 02/M04 A3018 RMK AO2 SLP223 T00171044 401001011
KJNX - Smithfield Johns, North Carolina, USA
Distance from station: ESE 17mi, 28km
Updated: Mon, 18-Jan-2021 11:55pm EST
Clear
Clear
 Wind from calm
Wind: Calm
Temperature: 30°F , -1°C
Dew Point: 28°F , -2°C
Humidity: 93%
Barometer: 30.20 inHg , 1022.7 hPa
Clouds: Clear
Visibility: 10 miles , 16 km
2021/01/19 04:55 KJNX 190455Z AUTO 00000KT 10SM CLR M01/M02 A3020 RMK AO2
 
KLHZ - Louisburg/Frankl, North Carolina, USA
Distance from station: NE 33mi, 54km
Updated: Mon, 18-Jan-2021 11:55pm EST
Clear
Clear
 Wind from W
Wind: W 5 mph , 7 km/h
Temperature: 36°F , 2°C
Wind Chill: 32°F , 0°C
Dew Point: 23°F , -5°C
Humidity: 60%
Barometer: 30.20 inHg , 1022.7 hPa
Clouds: Clear
Visibility: 10 miles , 16 km
2021/01/19 04:55 KLHZ 190455Z AUTO 26004KT 10SM CLR 02/M05 A3020 RMK AO2
KPOB - Pope Afb, North Carolina, USA
Distance from station: SSW 37mi, 59km
Updated: Mon, 18-Jan-2021 11:56pm EST
Clear
Clear
 Wind from calm
Wind: Calm
Temperature: 32°F , 0°C
Dew Point: 27°F , -3°C
Humidity: 80%
Barometer: 30.20 inHg , 1022.7 hPa
Clouds: Clear
Visibility: 10 miles , 16 km
2021/01/19 04:56 KPOB 190456Z AUTO 00000KT 10SM CLR M00/M03 A3020 RMK AO2 SLP231 T10021032 401201011 $
 
KSCR - Siler City, North Carolina, USA
Distance from station: W 47mi, 75km
Updated: Mon, 18-Jan-2021 11:55pm EST
Clear
Clear
 Wind from calm
Wind: Calm
Temperature: 28°F , -2°C
Dew Point: 23°F , -5°C
Humidity: 80%
Barometer: 30.18 inHg , 1022 hPa
Clouds: Clear
Visibility: 10 miles , 16 km
2021/01/19 04:55 KSCR 190455Z AUTO 00000KT 10SM CLR M02/M05 A3018 RMK AO2 T10171048
KTDF - Roxboro Person, North Carolina, USA
Distance from station: NNW 49mi, 79km
Updated: Mon, 18-Jan-2021 11:55pm EST
Clear
Clear
 Wind from calm
Wind: Calm
Temperature: 32°F , 0°C
Dew Point: 21°F , -6°C
Humidity: 64%
Barometer: 30.19 inHg , 1022.4 hPa
Clouds: Clear
Visibility: 10 miles , 16 km
2021/01/19 04:55 KTDF 190455Z AUTO 00000KT 10SM CLR 00/M06 A3019 RMK AO2
 
KSOP - Southern Pines, North Carolina, USA
Distance from station: SW 50mi, 80km
Updated: Mon, 18-Jan-2021 11:56pm EST
Clear
Clear
 Wind from calm
Wind: Calm
Temperature: 30°F , -1°C
Dew Point: 25°F , -4°C
Humidity: 80%
Barometer: 30.20 inHg , 1022.7 hPa
Clouds: Clear
Visibility: 10 miles , 16 km
2021/01/19 04:56 KSOP 190456Z AUTO 00000KT 10SM CLR M01/M04 A3020 RMK AO2 SLP235 T10111039 401111017 FZRANO PNO $
KHNZ - Henderson/Oxford, North Carolina, USA
Distance from station: N 52mi, 84km
Updated: Mon, 18-Jan-2021 11:55pm EST
Clear
Clear
 Wind from calm
Wind: Calm
Temperature: 28°F , -2°C
Dew Point: 19°F , -7°C
Humidity: 69%
Barometer: 30.16 inHg , 1021.3 hPa
Clouds: Clear
Visibility: 10 miles , 16 km
2021/01/19 04:55 KHNZ 190455Z AUTO 00000KT 10SM CLR M02/M07 A3016 RMK AO2 T10221071
 
KBUY - Burlington, North Carolina, USA
Distance from station: NW 54mi, 86km
Updated: Mon, 18-Jan-2021 11:54pm EST
Clear
Clear
 Wind from calm
Wind: Calm
Temperature: 36°F , 2°C
Dew Point: 21°F , -6°C
Humidity: 56%
Barometer: 30.16 inHg , 1021.3 hPa
Clouds: Clear
Visibility: 10 miles , 16 km
2021/01/19 04:54 KBUY 190454Z AUTO 00000KT 10SM CLR 02/M06 A3016 RMK AO2 SLP215 T00171056 401061006
KTNB - Boone Watauga Ct, North Carolina, USA
Distance from station: SE 2mi, 3km
Updated: Mon, 18-Jan-2021 11:55pm EST

 Wind from W
Wind: W 14 mph , 22 km/h, Gust: 21 mph , 33 km/h
Temperature: 30°F , -1°C
Wind Chill: 19°F , -7°C
Dew Point: 23°F , -5°C
Humidity: 75%
Barometer: 30.07 inHg , 1018.3 hPa
Visibility: 10 miles , 16 km
2021/01/19 04:55 KTNB 190455Z AUTO 28012G18KT 10SM M01/M05 A3007 RMK AO2 T10141055
 
KGEV - Jefferson, North Carolina, USA
Distance from station: NE 21mi, 33km
Updated: Mon, 18-Jan-2021 11:55pm EST
Clear
Clear
 Wind from W
Wind: W 23 mph , 37 km/h, Gust: 31 mph , 50 km/h
Temperature: 30°F , -1°C
Wind Chill: 17°F , -8°C
Dew Point: 23°F , -5°C
Humidity: 75%
Barometer: 30.04 inHg , 1017.3 hPa
Clouds: Clear
Visibility: 10 miles , 16 km
2021/01/19 04:55 KGEV 190455Z AUTO 27020G27KT 10SM CLR M01/M05 A3004 RMK AO2 T10101052
KFQD - Rutherfordton, North Carolina, USA
Distance from station: SSW 57mi, 92km
Updated: Mon, 18-Jan-2021 11:55pm EST
Clear
Clear
 Wind from SW
Wind: SW 5 mph , 7 km/h
Temperature: 37°F , 3°C
Wind Chill: 33°F , 1°C
Dew Point: 23°F , -5°C
Humidity: 56%
Barometer: 30.17 inHg , 1021.7 hPa
Clouds: Clear
Visibility: 10 miles , 16 km
2021/01/19 04:55 KFQD 190455Z AUTO 23004KT 10SM CLR 03/M05 A3017 RMK AO2
 
KAVL - Asheville, North Carolina, USA
Distance from station: SW 72mi, 117km
Updated: Mon, 18-Jan-2021 11:54pm EST
Clear
Clear
 Wind from SSE
Wind: SSE 5 mph , 7 km/h
Temperature: 27°F , -3°C
Wind Chill: 21°F , -6°C
Dew Point: 21°F , -6°C
Humidity: 80%
Barometer: 30.14 inHg , 1020.7 hPa
Clouds: Clear
Visibility: 10 miles , 16 km
2021/01/19 04:54 KAVL 190454Z AUTO 16004KT 10SM CLR M03/M06 A3014 RMK AO2 SLP215 T10281056 400671028